sensor_id;sensor_type;location;lat;lon;timestamp;P1;durP1;ratioP1;P2;durP2;ratioP2
55537;SDS011;41383;51.418;7.286;2023-04-12T00:00:48;5.18;;;1.20;;
55537;SDS011;41383;51.418;7.286;2023-04-12T00:03:16;4.55;;;1.55;;
55537;SDS011;41383;51.418;7.286;2023-04-12T00:05:45;6.25;;;2.70;;
55537;SDS011;41383;51.418;7.286;2023-04-12T00:08:11;14.57;;;2.65;;
55537;SDS011;41383;51.418;7.286;2023-04-12T00:10:36;8.48;;;2.63;;
55537;SDS011;41383;51.418;7.286;2023-04-12T00:13:02;4.82;;;1.50;;
55537;SDS011;41383;51.418;7.286;2023-04-12T00:15:27;6.10;;;2.15;;
55537;SDS011;41383;51.418;7.286;2023-04-12T00:17:52;5.07;;;1.92;;
55537;SDS011;41383;51.418;7.286;2023-04-12T00:20:18;6.90;;;1.63;;
55537;SDS011;41383;51.418;7.286;2023-04-12T00:22:43;3.95;;;1.13;;
55537;SDS011;41383;51.418;7.286;2023-04-12T00:25:09;3.88;;;1.60;;
55537;SDS011;41383;51.418;7.286;2023-04-12T00:27:35;11.18;;;2.13;;
55537;SDS011;41383;51.418;7.286;2023-04-12T00:30:00;8.93;;;1.80;;
55537;SDS011;41383;51.418;7.286;2023-04-12T00:32:26;5.10;;;1.70;;
55537;SDS011;41383;51.418;7.286;2023-04-12T00:34:51;6.05;;;2.40;;
55537;SDS011;41383;51.418;7.286;2023-04-12T00:37:17;7.88;;;2.78;;
55537;SDS011;41383;51.418;7.286;2023-04-12T00:39:42;5.70;;;1.85;;
55537;SDS011;41383;51.418;7.286;2023-04-12T00:42:08;6.45;;;2.10;;
55537;SDS011;41383;51.418;7.286;2023-04-12T00:44:33;9.57;;;1.83;;
55537;SDS011;41383;51.418;7.286;2023-04-12T00:46:59;5.30;;;1.60;;
55537;SDS011;41383;51.418;7.286;2023-04-12T00:49:27;9.32;;;1.83;;
55537;SDS011;41383;51.418;7.286;2023-04-12T00:51:55;14.40;;;2.95;;
55537;SDS011;41383;51.418;7.286;2023-04-12T00:54:27;7.30;;;1.60;;
55537;SDS011;41383;51.418;7.286;2023-04-12T00:56:53;6.57;;;2.45;;
55537;SDS011;41383;51.418;7.286;2023-04-12T00:59:21;11.35;;;2.78;;
55537;SDS011;41383;51.418;7.286;2023-04-12T01:01:46;4.57;;;1.25;;
55537;SDS011;41383;51.418;7.286;2023-04-12T01:04:11;4.73;;;1.60;;
55537;SDS011;41383;51.418;7.286;2023-04-12T01:06:45;6.82;;;1.58;;
55537;SDS011;41383;51.418;7.286;2023-04-12T01:12:40;5.65;;;1.50;;
55537;SDS011;41383;51.418;7.286;2023-04-12T01:15:28;4.30;;;2.10;;
55537;SDS011;41383;51.418;7.286;2023-04-12T01:18:11;8.00;;;2.33;;
55537;SDS011;41383;51.418;7.286;2023-04-12T01:20:41;4.07;;;1.10;;
55537;SDS011;41383;51.418;7.286;2023-04-12T01:23:14;3.95;;;1.45;;
55537;SDS011;41383;51.418;7.286;2023-04-12T01:28:33;4.75;;;1.63;;
55537;SDS011;41383;51.418;7.286;2023-04-12T01:31:02;6.65;;;2.00;;
55537;SDS011;41383;51.418;7.286;2023-04-12T01:33:32;5.10;;;1.65;;
55537;SDS011;41383;51.418;7.286;2023-04-12T01:36:02;5.65;;;1.20;;
55537;SDS011;41383;51.418;7.286;2023-04-12T01:38:34;12.83;;;1.87;;
55537;SDS011;41383;51.418;7.286;2023-04-12T01:41:00;8.88;;;2.13;;
55537;SDS011;41383;51.418;7.286;2023-04-12T01:43:25;2.20;;;0.82;;
55537;SDS011;41383;51.418;7.286;2023-04-12T01:45:51;6.75;;;2.67;;
55537;SDS011;41383;51.418;7.286;2023-04-12T01:48:19;7.10;;;1.15;;
55537;SDS011;41383;51.418;7.286;2023-04-12T01:53:48;8.63;;;2.53;;
55537;SDS011;41383;51.418;7.286;2023-04-12T01:56:18;6.75;;;1.25;;
55537;SDS011;41383;51.418;7.286;2023-04-12T01:58:46;11.90;;;2.78;;
55537;SDS011;41383;51.418;7.286;2023-04-12T02:01:14;6.82;;;1.45;;
55537;SDS011;41383;51.418;7.286;2023-04-12T02:03:43;4.13;;;1.40;;
55537;SDS011;41383;51.418;7.286;2023-04-12T02:06:10;4.30;;;1.30;;
55537;SDS011;41383;51.418;7.286;2023-04-12T02:08:36;17.88;;;1.73;;
55537;SDS011;41383;51.418;7.286;2023-04-12T02:11:08;4.05;;;1.67;;
55537;SDS011;41383;51.418;7.286;2023-04-12T02:13:34;4.40;;;2.00;;
55537;SDS011;41383;51.418;7.286;2023-04-12T02:16:00;5.90;;;1.50;;
55537;SDS011;41383;51.418;7.286;2023-04-12T02:18:26;10.02;;;1.63;;
55537;SDS011;41383;51.418;7.286;2023-04-12T02:20:55;7.63;;;1.60;;
55537;SDS011;41383;51.418;7.286;2023-04-12T02:23:20;5.57;;;1.58;;
55537;SDS011;41383;51.418;7.286;2023-04-12T02:25:46;5.63;;;1.33;;
55537;SDS011;41383;51.418;7.286;2023-04-12T02:28:11;5.85;;;1.58;;
55537;SDS011;41383;51.418;7.286;2023-04-12T02:30:37;2.92;;;1.50;;
55537;SDS011;41383;51.418;7.286;2023-04-12T02:33:05;7.85;;;1.88;;
55537;SDS011;41383;51.418;7.286;2023-04-12T02:35:33;4.30;;;1.63;;
55537;SDS011;41383;51.418;7.286;2023-04-12T02:37:58;9.68;;;2.45;;
55537;SDS011;41383;51.418;7.286;2023-04-12T02:40:24;7.83;;;1.27;;
55537;SDS011;41383;51.418;7.286;2023-04-12T02:42:49;6.07;;;2.55;;
55537;SDS011;41383;51.418;7.286;2023-04-12T02:45:14;10.18;;;2.17;;
55537;SDS011;41383;51.418;7.286;2023-04-12T02:47:40;5.68;;;1.20;;
55537;SDS011;41383;51.418;7.286;2023-04-12T02:50:05;4.00;;;1.50;;
55537;SDS011;41383;51.418;7.286;2023-04-12T02:52:31;4.93;;;2.08;;
55537;SDS011;41383;51.418;7.286;2023-04-12T02:54:57;3.20;;;1.05;;
55537;SDS011;41383;51.418;7.286;2023-04-12T02:57:23;7.07;;;1.33;;
55537;SDS011;41383;51.418;7.286;2023-04-12T02:59:51;4.78;;;1.40;;
55537;SDS011;41383;51.418;7.286;2023-04-12T03:02:17;7.53;;;2.20;;
55537;SDS011;41383;51.418;7.286;2023-04-12T03:04:43;4.43;;;1.67;;
55537;SDS011;41383;51.418;7.286;2023-04-12T03:07:11;4.57;;;1.42;;
55537;SDS011;41383;51.418;7.286;2023-04-12T03:09:37;7.43;;;1.92;;
55537;SDS011;41383;51.418;7.286;2023-04-12T03:12:02;4.78;;;2.10;;
55537;SDS011;41383;51.418;7.286;2023-04-12T03:14:28;5.35;;;1.23;;
55537;SDS011;41383;51.418;7.286;2023-04-12T03:16:53;5.60;;;2.00;;
55537;SDS011;41383;51.418;7.286;2023-04-12T03:19:18;3.40;;;1.25;;
55537;SDS011;41383;51.418;7.286;2023-04-12T03:21:44;6.32;;;2.05;;
55537;SDS011;41383;51.418;7.286;2023-04-12T03:24:09;4.93;;;1.35;;
55537;SDS011;41383;51.418;7.286;2023-04-12T03:26:35;7.10;;;1.88;;
55537;SDS011;41383;51.418;7.286;2023-04-12T03:29:01;6.95;;;3.00;;
55537;SDS011;41383;51.418;7.286;2023-04-12T03:31:32;6.57;;;1.88;;
55537;SDS011;41383;51.418;7.286;2023-04-12T03:33:58;3.08;;;1.20;;
55537;SDS011;41383;51.418;7.286;2023-04-12T03:36:24;5.20;;;1.25;;
55537;SDS011;41383;51.418;7.286;2023-04-12T03:38:51;6.22;;;2.45;;
55537;SDS011;41383;51.418;7.286;2023-04-12T03:41:16;2.92;;;0.90;;
55537;SDS011;41383;51.418;7.286;2023-04-12T03:43:41;1.97;;;0.77;;
55537;SDS011;41383;51.418;7.286;2023-04-12T03:46:07;11.63;;;1.70;;
55537;SDS011;41383;51.418;7.286;2023-04-12T03:48:32;3.50;;;1.20;;
55537;SDS011;41383;51.418;7.286;2023-04-12T03:50:58;5.25;;;1.10;;
55537;SDS011;41383;51.418;7.286;2023-04-12T03:53:24;15.27;;;2.10;;
55537;SDS011;41383;51.418;7.286;2023-04-12T03:55:51;4.90;;;1.73;;
55537;SDS011;41383;51.418;7.286;2023-04-12T03:58:16;2.55;;;0.82;;
55537;SDS011;41383;51.418;7.286;2023-04-12T04:00:42;2.38;;;0.75;;
55537;SDS011;41383;51.418;7.286;2023-04-12T04:03:08;4.32;;;1.65;;
55537;SDS011;41383;51.418;7.286;2023-04-12T04:05:33;3.90;;;1.48;;
55537;SDS011;41383;51.418;7.286;2023-04-12T04:07:59;2.50;;;0.73;;
55537;SDS011;41383;51.418;7.286;2023-04-12T04:10:29;2.60;;;0.80;;
55537;SDS011;41383;51.418;7.286;2023-04-12T04:12:55;2.60;;;1.20;;
55537;SDS011;41383;51.418;7.286;2023-04-12T04:15:20;7.00;;;1.17;;
55537;SDS011;41383;51.418;7.286;2023-04-12T04:17:45;5.25;;;1.05;;
55537;SDS011;41383;51.418;7.286;2023-04-12T04:20:12;3.95;;;1.20;;
55537;SDS011;41383;51.418;7.286;2023-04-12T04:22:37;4.30;;;1.20;;
55537;SDS011;41383;51.418;7.286;2023-04-12T04:25:03;3.10;;;0.88;;
55537;SDS011;41383;51.418;7.286;2023-04-12T04:27:28;6.65;;;1.48;;
55537;SDS011;41383;51.418;7.286;2023-04-12T04:29:54;3.28;;;1.63;;
55537;SDS011;41383;51.418;7.286;2023-04-12T04:32:23;4.72;;;1.23;;
55537;SDS011;41383;51.418;7.286;2023-04-12T04:34:49;4.53;;;1.73;;
55537;SDS011;41383;51.418;7.286;2023-04-12T04:37:15;4.65;;;1.58;;
55537;SDS011;41383;51.418;7.286;2023-04-12T04:39:41;4.10;;;1.77;;
55537;SDS011;41383;51.418;7.286;2023-04-12T04:42:07;8.30;;;1.50;;
55537;SDS011;41383;51.418;7.286;2023-04-12T04:44:32;7.20;;;2.28;;
55537;SDS011;41383;51.418;7.286;2023-04-12T04:46:59;2.30;;;1.10;;
55537;SDS011;41383;51.418;7.286;2023-04-12T04:49:24;4.40;;;1.07;;
55537;SDS011;41383;51.418;7.286;2023-04-12T04:51:50;8.82;;;1.60;;
55537;SDS011;41383;51.418;7.286;2023-04-12T04:54:15;5.50;;;1.23;;
55537;SDS011;41383;51.418;7.286;2023-04-12T04:56:40;4.20;;;1.83;;
55537;SDS011;41383;51.418;7.286;2023-04-12T04:59:06;7.50;;;1.60;;
55537;SDS011;41383;51.418;7.286;2023-04-12T05:01:31;3.05;;;1.05;;
55537;SDS011;41383;51.418;7.286;2023-04-12T05:04:00;12.27;;;1.42;;
55537;SDS011;41383;51.418;7.286;2023-04-12T05:06:25;4.28;;;1.17;;
55537;SDS011;41383;51.418;7.286;2023-04-12T05:08:51;2.58;;;1.42;;
55537;SDS011;41383;51.418;7.286;2023-04-12T05:11:16;4.35;;;1.52;;
55537;SDS011;41383;51.418;7.286;2023-04-12T05:13:42;4.82;;;2.17;;
55537;SDS011;41383;51.418;7.286;2023-04-12T05:16:07;4.20;;;1.65;;
55537;SDS011;41383;51.418;7.286;2023-04-12T05:18:33;5.57;;;1.27;;
55537;SDS011;41383;51.418;7.286;2023-04-12T05:21:02;2.00;;;0.88;;
55537;SDS011;41383;51.418;7.286;2023-04-12T05:23:28;2.83;;;1.17;;
55537;SDS011;41383;51.418;7.286;2023-04-12T05:25:53;3.63;;;1.10;;
55537;SDS011;41383;51.418;7.286;2023-04-12T05:28:19;3.95;;;1.42;;
55537;SDS011;41383;51.418;7.286;2023-04-12T05:30:44;3.33;;;1.10;;
55537;SDS011;41383;51.418;7.286;2023-04-12T05:33:10;4.05;;;0.90;;
55537;SDS011;41383;51.418;7.286;2023-04-12T05:35:35;3.83;;;2.15;;
55537;SDS011;41383;51.418;7.286;2023-04-12T05:38:01;3.22;;;1.05;;
55537;SDS011;41383;51.418;7.286;2023-04-12T05:40:26;3.83;;;1.23;;
55537;SDS011;41383;51.418;7.286;2023-04-12T05:42:52;2.80;;;0.90;;
55537;SDS011;41383;51.418;7.286;2023-04-12T05:45:17;4.57;;;1.67;;
55537;SDS011;41383;51.418;7.286;2023-04-12T05:47:43;4.85;;;1.35;;
55537;SDS011;41383;51.418;7.286;2023-04-12T05:50:08;2.33;;;1.10;;
55537;SDS011;41383;51.418;7.286;2023-04-12T05:52:35;2.20;;;0.90;;
55537;SDS011;41383;51.418;7.286;2023-04-12T05:55:00;3.30;;;1.35;;
55537;SDS011;41383;51.418;7.286;2023-04-12T05:57:26;2.17;;;1.00;;
55537;SDS011;41383;51.418;7.286;2023-04-12T05:59:51;2.53;;;0.90;;
55537;SDS011;41383;51.418;7.286;2023-04-12T06:02:16;2.23;;;0.87;;
55537;SDS011;41383;51.418;7.286;2023-04-12T06:04:42;1.02;;;0.68;;
55537;SDS011;41383;51.418;7.286;2023-04-12T06:07:08;3.88;;;1.17;;
55537;SDS011;41383;51.418;7.286;2023-04-12T06:09:33;1.52;;;0.80;;
55537;SDS011;41383;51.418;7.286;2023-04-12T06:11:59;2.05;;;1.27;;
55537;SDS011;41383;51.418;7.286;2023-04-12T06:14:24;3.47;;;1.02;;
55537;SDS011;41383;51.418;7.286;2023-04-12T06:16:50;2.50;;;1.00;;
55537;SDS011;41383;51.418;7.286;2023-04-12T06:19:15;3.00;;;0.93;;
55537;SDS011;41383;51.418;7.286;2023-04-12T06:21:41;5.30;;;0.75;;
55537;SDS011;41383;51.418;7.286;2023-04-12T06:24:06;2.55;;;0.98;;
55537;SDS011;41383;51.418;7.286;2023-04-12T06:26:31;2.38;;;0.90;;
55537;SDS011;41383;51.418;7.286;2023-04-12T06:28:57;1.83;;;0.80;;
55537;SDS011;41383;51.418;7.286;2023-04-12T06:31:22;2.23;;;0.83;;
55537;SDS011;41383;51.418;7.286;2023-04-12T06:33:47;5.32;;;1.20;;
55537;SDS011;41383;51.418;7.286;2023-04-12T06:36:14;2.42;;;0.57;;
55537;SDS011;41383;51.418;7.286;2023-04-12T06:38:40;4.90;;;1.00;;
55537;SDS011;41383;51.418;7.286;2023-04-12T06:41:05;2.65;;;0.85;;
55537;SDS011;41383;51.418;7.286;2023-04-12T06:43:31;3.83;;;1.00;;
55537;SDS011;41383;51.418;7.286;2023-04-12T06:45:56;4.53;;;1.30;;
55537;SDS011;41383;51.418;7.286;2023-04-12T06:48:22;6.72;;;2.28;;
55537;SDS011;41383;51.418;7.286;2023-04-12T06:50:47;4.30;;;1.67;;
55537;SDS011;41383;51.418;7.286;2023-04-12T06:53:12;3.53;;;0.57;;
55537;SDS011;41383;51.418;7.286;2023-04-12T06:55:38;1.35;;;0.57;;
55537;SDS011;41383;51.418;7.286;2023-04-12T06:58:04;1.58;;;0.65;;
55537;SDS011;41383;51.418;7.286;2023-04-12T07:00:29;2.03;;;1.10;;
55537;SDS011;41383;51.418;7.286;2023-04-12T07:02:54;2.28;;;0.95;;
55537;SDS011;41383;51.418;7.286;2023-04-12T07:05:20;1.70;;;0.53;;
55537;SDS011;41383;51.418;7.286;2023-04-12T07:07:45;4.22;;;0.95;;
55537;SDS011;41383;51.418;7.286;2023-04-12T07:10:10;2.22;;;1.10;;
55537;SDS011;41383;51.418;7.286;2023-04-12T07:12:36;3.10;;;0.70;;
55537;SDS011;41383;51.418;7.286;2023-04-12T07:15:01;0.73;;;0.50;;
55537;SDS011;41383;51.418;7.286;2023-04-12T07:17:26;1.40;;;0.68;;
55537;SDS011;41383;51.418;7.286;2023-04-12T07:19:55;1.20;;;0.60;;
55537;SDS011;41383;51.418;7.286;2023-04-12T07:22:20;1.35;;;0.52;;
55537;SDS011;41383;51.418;7.286;2023-04-12T07:24:46;2.08;;;0.57;;
55537;SDS011;41383;51.418;7.286;2023-04-12T07:27:12;1.75;;;0.50;;
55537;SDS011;41383;51.418;7.286;2023-04-12T07:29:37;0.70;;;0.32;;
55537;SDS011;41383;51.418;7.286;2023-04-12T07:32:03;3.10;;;0.40;;
55537;SDS011;41383;51.418;7.286;2023-04-12T07:34:28;1.65;;;0.75;;
55537;SDS011;41383;51.418;7.286;2023-04-12T07:36:54;2.03;;;0.55;;
55537;SDS011;41383;51.418;7.286;2023-04-12T07:39:20;3.80;;;0.52;;
55537;SDS011;41383;51.418;7.286;2023-04-12T07:41:45;0.80;;;0.30;;
55537;SDS011;41383;51.418;7.286;2023-04-12T07:44:12;0.98;;;0.47;;
55537;SDS011;41383;51.418;7.286;2023-04-12T07:46:37;0.50;;;0.30;;
55537;SDS011;41383;51.418;7.286;2023-04-12T07:49:03;0.82;;;0.30;;
55537;SDS011;41383;51.418;7.286;2023-04-12T07:51:28;7.20;;;1.13;;
55537;SDS011;41383;51.418;7.286;2023-04-12T07:53:53;0.73;;;0.30;;
55537;SDS011;41383;51.418;7.286;2023-04-12T07:56:19;0.75;;;0.38;;
55537;SDS011;41383;51.418;7.286;2023-04-12T07:58:44;1.73;;;0.68;;
55537;SDS011;41383;51.418;7.286;2023-04-12T08:01:10;0.80;;;0.30;;
55537;SDS011;41383;51.418;7.286;2023-04-12T08:03:37;0.60;;;0.30;;
55537;SDS011;41383;51.418;7.286;2023-04-12T08:06:02;0.43;;;0.30;;
55537;SDS011;41383;51.418;7.286;2023-04-12T08:08:28;1.55;;;0.45;;
55537;SDS011;41383;51.418;7.286;2023-04-12T08:10:53;1.17;;;0.40;;
55537;SDS011;41383;51.418;7.286;2023-04-12T08:13:18;0.60;;;0.22;;
55537;SDS011;41383;51.418;7.286;2023-04-12T08:15:44;4.03;;;0.60;;
55537;SDS011;41383;51.418;7.286;2023-04-12T08:18:11;0.90;;;0.55;;
55537;SDS011;41383;51.418;7.286;2023-04-12T08:20:36;0.40;;;0.30;;
55537;SDS011;41383;51.418;7.286;2023-04-12T08:23:04;0.70;;;0.32;;
55537;SDS011;41383;51.418;7.286;2023-04-12T08:25:30;1.17;;;0.40;;
55537;SDS011;41383;51.418;7.286;2023-04-12T08:27:55;2.05;;;0.50;;
55537;SDS011;41383;51.418;7.286;2023-04-12T08:30:20;2.28;;;0.55;;
55537;SDS011;41383;51.418;7.286;2023-04-12T08:32:54;0.50;;;0.15;;
55537;SDS011;41383;51.418;7.286;2023-04-12T08:35:19;3.17;;;0.57;;
55537;SDS011;41383;51.418;7.286;2023-04-12T08:37:46;3.97;;;0.65;;
55537;SDS011;41383;51.418;7.286;2023-04-12T08:40:11;2.40;;;0.50;;
55537;SDS011;41383;51.418;7.286;2023-04-12T08:42:37;1.27;;;0.40;;
55537;SDS011;41383;51.418;7.286;2023-04-12T08:45:08;0.87;;;0.40;;
55537;SDS011;41383;51.418;7.286;2023-04-12T08:47:36;2.22;;;0.40;;
55537;SDS011;41383;51.418;7.286;2023-04-12T08:50:03;0.70;;;0.40;;
55537;SDS011;41383;51.418;7.286;2023-04-12T08:52:33;1.33;;;0.40;;
55537;SDS011;41383;51.418;7.286;2023-04-12T08:55:00;1.67;;;0.25;;
55537;SDS011;41383;51.418;7.286;2023-04-12T08:57:27;0.82;;;0.32;;
55537;SDS011;41383;51.418;7.286;2023-04-12T08:59:53;2.00;;;0.70;;
55537;SDS011;41383;51.418;7.286;2023-04-12T09:02:19;2.28;;;0.32;;
55537;SDS011;41383;51.418;7.286;2023-04-12T09:04:45;2.13;;;1.07;;
55537;SDS011;41383;51.418;7.286;2023-04-12T09:07:12;2.58;;;0.40;;
55537;SDS011;41383;51.418;7.286;2023-04-12T09:12:10;0.57;;;0.38;;
55537;SDS011;41383;51.418;7.286;2023-04-12T09:14:36;1.58;;;0.43;;
55537;SDS011;41383;51.418;7.286;2023-04-12T09:17:03;0.80;;;0.50;;
55537;SDS011;41383;51.418;7.286;2023-04-12T09:19:30;1.50;;;0.82;;
55537;SDS011;41383;51.418;7.286;2023-04-12T09:21:56;2.67;;;0.50;;
55537;SDS011;41383;51.418;7.286;2023-04-12T09:24:22;2.80;;;0.40;;
55537;SDS011;41383;51.418;7.286;2023-04-12T09:26:49;1.08;;;0.40;;
55537;SDS011;41383;51.418;7.286;2023-04-12T09:29:25;0.95;;;0.30;;
55537;SDS011;41383;51.418;7.286;2023-04-12T09:32:00;1.10;;;0.73;;
55537;SDS011;41383;51.418;7.286;2023-04-12T09:34:27;0.82;;;0.28;;
55537;SDS011;41383;51.418;7.286;2023-04-12T09:36:53;3.22;;;0.47;;
55537;SDS011;41383;51.418;7.286;2023-04-12T09:39:19;0.73;;;0.25;;
55537;SDS011;41383;51.418;7.286;2023-04-12T09:42:02;0.40;;;0.20;;
55537;SDS011;41383;51.418;7.286;2023-04-12T09:44:28;1.45;;;0.50;;
55537;SDS011;41383;51.418;7.286;2023-04-12T09:46:54;1.38;;;0.40;;
55537;SDS011;41383;51.418;7.286;2023-04-12T09:49:19;0.73;;;0.60;;
55537;SDS011;41383;51.418;7.286;2023-04-12T09:52:00;1.63;;;0.80;;
55537;SDS011;41383;51.418;7.286;2023-04-12T09:54:26;1.40;;;0.57;;
55537;SDS011;41383;51.418;7.286;2023-04-12T09:56:51;2.33;;;1.47;;
55537;SDS011;41383;51.418;7.286;2023-04-12T09:59:19;0.82;;;0.32;;
55537;SDS011;41383;51.418;7.286;2023-04-12T10:01:47;1.17;;;0.40;;
55537;SDS011;41383;51.418;7.286;2023-04-12T10:04:13;0.38;;;0.30;;
55537;SDS011;41383;51.418;7.286;2023-04-12T10:06:38;2.72;;;0.40;;
55537;SDS011;41383;51.418;7.286;2023-04-12T10:09:05;0.80;;;0.35;;
55537;SDS011;41383;51.418;7.286;2023-04-12T10:11:32;0.40;;;0.30;;
55537;SDS011;41383;51.418;7.286;2023-04-12T10:13:58;0.60;;;0.40;;
55537;SDS011;41383;51.418;7.286;2023-04-12T10:16:26;1.55;;;0.47;;
55537;SDS011;41383;51.418;7.286;2023-04-12T10:18:51;0.82;;;0.60;;
55537;SDS011;41383;51.418;7.286;2023-04-12T10:21:19;0.82;;;0.57;;
55537;SDS011;41383;51.418;7.286;2023-04-12T10:23:45;1.30;;;0.68;;
55537;SDS011;41383;51.418;7.286;2023-04-12T10:26:11;1.50;;;0.50;;
55537;SDS011;41383;51.418;7.286;2023-04-12T10:28:39;1.38;;;0.40;;
55537;SDS011;41383;51.418;7.286;2023-04-12T10:33:54;0.88;;;0.30;;
55537;SDS011;41383;51.418;7.286;2023-04-12T10:36:19;1.42;;;0.55;;
55537;SDS011;41383;51.418;7.286;2023-04-12T10:39:33;1.13;;;0.32;;
55537;SDS011;41383;51.418;7.286;2023-04-12T10:42:13;1.23;;;0.75;;
55537;SDS011;41383;51.418;7.286;2023-04-12T10:44:50;0.43;;;0.40;;
55537;SDS011;41383;51.418;7.286;2023-04-12T10:55:38;1.60;;;0.30;;
55537;SDS011;41383;51.418;7.286;2023-04-12T10:58:03;1.02;;;0.60;;
55537;SDS011;41383;51.418;7.286;2023-04-12T11:01:08;0.40;;;0.40;;
55537;SDS011;41383;51.418;7.286;2023-04-12T11:03:20;0.20;;;0.20;;
55537;SDS011;41383;51.418;7.286;2023-04-12T11:05:55;0.60;;;0.40;;
55537;SDS011;41383;51.418;7.286;2023-04-12T11:08:27;1.83;;;0.57;;
55537;SDS011;41383;51.418;7.286;2023-04-12T11:11:00;4.18;;;0.75;;
55537;SDS011;41383;51.418;7.286;2023-04-12T11:13:28;0.60;;;0.60;;
55537;SDS011;41383;51.418;7.286;2023-04-12T11:16:00;2.50;;;0.88;;
55537;SDS011;41383;51.418;7.286;2023-04-12T11:18:31;1.27;;;0.73;;
55537;SDS011;41383;51.418;7.286;2023-04-12T11:20:58;2.55;;;1.00;;
55537;SDS011;41383;51.418;7.286;2023-04-12T11:23:23;1.00;;;0.55;;
55537;SDS011;41383;51.418;7.286;2023-04-12T11:25:49;1.70;;;0.73;;
55537;SDS011;41383;51.418;7.286;2023-04-12T11:28:17;1.15;;;0.50;;
55537;SDS011;41383;51.418;7.286;2023-04-12T11:30:51;3.65;;;1.15;;
55537;SDS011;41383;51.418;7.286;2023-04-12T11:36:14;1.25;;;0.68;;
55537;SDS011;41383;51.418;7.286;2023-04-12T11:38:41;1.85;;;0.43;;
55537;SDS011;41383;51.418;7.286;2023-04-12T11:41:09;6.03;;;0.95;;
55537;SDS011;41383;51.418;7.286;2023-04-12T11:43:35;1.55;;;0.40;;
55537;SDS011;41383;51.418;7.286;2023-04-12T11:46:05;2.70;;;0.30;;
55537;SDS011;41383;51.418;7.286;2023-04-12T11:48:30;3.65;;;1.75;;
55537;SDS011;41383;51.418;7.286;2023-04-12T11:50:56;1.38;;;0.35;;
55537;SDS011;41383;51.418;7.286;2023-04-12T11:53:26;0.80;;;0.20;;
55537;SDS011;41383;51.418;7.286;2023-04-12T11:55:53;0.47;;;0.30;;
55537;SDS011;41383;51.418;7.286;2023-04-12T11:58:27;1.65;;;0.28;;
55537;SDS011;41383;51.418;7.286;2023-04-12T12:00:52;1.83;;;0.65;;
55537;SDS011;41383;51.418;7.286;2023-04-12T12:03:21;1.92;;;0.55;;
55537;SDS011;41383;51.418;7.286;2023-04-12T12:05:46;1.20;;;0.70;;
55537;SDS011;41383;51.418;7.286;2023-04-12T12:08:13;1.35;;;0.70;;
55537;SDS011;41383;51.418;7.286;2023-04-12T12:10:38;29.02;;;3.25;;
55537;SDS011;41383;51.418;7.286;2023-04-12T12:13:11;5.93;;;1.63;;
55537;SDS011;41383;51.418;7.286;2023-04-12T12:15:37;2.67;;;1.20;;
55537;SDS011;41383;51.418;7.286;2023-04-12T12:18:02;3.22;;;1.35;;
55537;SDS011;41383;51.418;7.286;2023-04-12T12:20:32;4.10;;;2.05;;
55537;SDS011;41383;51.418;7.286;2023-04-12T12:22:57;5.07;;;2.08;;
55537;SDS011;41383;51.418;7.286;2023-04-12T12:25:23;4.70;;;1.87;;
55537;SDS011;41383;51.418;7.286;2023-04-12T12:27:48;4.85;;;2.05;;
55537;SDS011;41383;51.418;7.286;2023-04-12T12:30:21;3.53;;;1.40;;
55537;SDS011;41383;51.418;7.286;2023-04-12T12:32:48;3.60;;;0.93;;
55537;SDS011;41383;51.418;7.286;2023-04-12T12:35:14;3.95;;;1.63;;
55537;SDS011;41383;51.418;7.286;2023-04-12T12:37:52;3.00;;;1.38;;
55537;SDS011;41383;51.418;7.286;2023-04-12T12:40:28;8.30;;;1.70;;
55537;SDS011;41383;51.418;7.286;2023-04-12T12:42:56;3.05;;;1.58;;
55537;SDS011;41383;51.418;7.286;2023-04-12T12:45:23;4.13;;;1.67;;
55537;SDS011;41383;51.418;7.286;2023-04-12T12:50:17;9.45;;;1.65;;
55537;SDS011;41383;51.418;7.286;2023-04-12T12:52:44;4.47;;;1.88;;
55537;SDS011;41383;51.418;7.286;2023-04-12T12:55:10;3.53;;;1.25;;
55537;SDS011;41383;51.418;7.286;2023-04-12T12:57:36;2.25;;;1.20;;
55537;SDS011;41383;51.418;7.286;2023-04-12T13:00:01;5.27;;;1.27;;
55537;SDS011;41383;51.418;7.286;2023-04-12T13:02:28;5.35;;;2.10;;
55537;SDS011;41383;51.418;7.286;2023-04-12T13:04:53;5.60;;;1.60;;
55537;SDS011;41383;51.418;7.286;2023-04-12T13:07:19;6.13;;;1.83;;
55537;SDS011;41383;51.418;7.286;2023-04-12T13:09:44;6.18;;;2.00;;
55537;SDS011;41383;51.418;7.286;2023-04-12T13:12:10;5.00;;;2.05;;
55537;SDS011;41383;51.418;7.286;2023-04-12T13:14:35;5.55;;;2.10;;
55537;SDS011;41383;51.418;7.286;2023-04-12T13:17:00;6.47;;;1.70;;
55537;SDS011;41383;51.418;7.286;2023-04-12T13:19:26;6.27;;;2.30;;
55537;SDS011;41383;51.418;7.286;2023-04-12T13:21:51;5.93;;;2.40;;
55537;SDS011;41383;51.418;7.286;2023-04-12T13:24:16;6.40;;;1.87;;
55537;SDS011;41383;51.418;7.286;2023-04-12T13:26:41;9.57;;;1.80;;
55537;SDS011;41383;51.418;7.286;2023-04-12T13:29:07;5.53;;;1.52;;
55537;SDS011;41383;51.418;7.286;2023-04-12T13:31:32;6.43;;;1.80;;
55537;SDS011;41383;51.418;7.286;2023-04-12T13:33:57;6.13;;;2.00;;
55537;SDS011;41383;51.418;7.286;2023-04-12T13:36:23;5.67;;;2.77;;
55537;SDS011;41383;51.418;7.286;2023-04-12T13:38:48;5.68;;;1.73;;
55537;SDS011;41383;51.418;7.286;2023-04-12T13:41:13;7.63;;;2.23;;
55537;SDS011;41383;51.418;7.286;2023-04-12T13:43:39;5.33;;;1.50;;
55537;SDS011;41383;51.418;7.286;2023-04-12T13:46:04;6.47;;;1.55;;
55537;SDS011;41383;51.418;7.286;2023-04-12T13:48:31;4.10;;;1.90;;
55537;SDS011;41383;51.418;7.286;2023-04-12T13:50:56;4.13;;;1.85;;
55537;SDS011;41383;51.418;7.286;2023-04-12T13:53:22;5.90;;;1.83;;
55537;SDS011;41383;51.418;7.286;2023-04-12T13:55:47;7.00;;;2.07;;
55537;SDS011;41383;51.418;7.286;2023-04-12T13:58:14;11.05;;;3.10;;
55537;SDS011;41383;51.418;7.286;2023-04-12T14:00:39;5.18;;;1.58;;
55537;SDS011;41383;51.418;7.286;2023-04-12T14:03:05;4.53;;;1.58;;
55537;SDS011;41383;51.418;7.286;2023-04-12T14:05:31;4.35;;;1.98;;
55537;SDS011;41383;51.418;7.286;2023-04-12T14:07:56;10.30;;;3.40;;
55537;SDS011;41383;51.418;7.286;2023-04-12T14:10:21;7.57;;;1.73;;
55537;SDS011;41383;51.418;7.286;2023-04-12T14:12:47;5.17;;;1.40;;
55537;SDS011;41383;51.418;7.286;2023-04-12T14:15:12;8.63;;;3.10;;
55537;SDS011;41383;51.418;7.286;2023-04-12T14:17:37;7.38;;;2.22;;
55537;SDS011;41383;51.418;7.286;2023-04-12T14:20:03;7.03;;;1.70;;
55537;SDS011;41383;51.418;7.286;2023-04-12T14:22:31;13.35;;;2.55;;
55537;SDS011;41383;51.418;7.286;2023-04-12T14:24:56;4.37;;;1.43;;
55537;SDS011;41383;51.418;7.286;2023-04-12T14:27:21;9.10;;;1.73;;
55537;SDS011;41383;51.418;7.286;2023-04-12T14:29:47;3.73;;;1.73;;
55537;SDS011;41383;51.418;7.286;2023-04-12T14:32:12;4.72;;;2.58;;
55537;SDS011;41383;51.418;7.286;2023-04-12T14:34:37;6.90;;;2.77;;
55537;SDS011;41383;51.418;7.286;2023-04-12T14:37:03;6.03;;;1.60;;
55537;SDS011;41383;51.418;7.286;2023-04-12T14:39:28;8.55;;;3.03;;
55537;SDS011;41383;51.418;7.286;2023-04-12T14:41:54;18.00;;;5.20;;
55537;SDS011;41383;51.418;7.286;2023-04-12T14:44:21;14.30;;;6.15;;
55537;SDS011;41383;51.418;7.286;2023-04-12T14:46:47;8.63;;;3.30;;
55537;SDS011;41383;51.418;7.286;2023-04-12T14:49:12;8.35;;;4.05;;
55537;SDS011;41383;51.418;7.286;2023-04-12T14:51:38;9.82;;;3.97;;
55537;SDS011;41383;51.418;7.286;2023-04-12T14:54:03;9.57;;;5.13;;
55537;SDS011;41383;51.418;7.286;2023-04-12T14:56:28;14.60;;;5.10;;
55537;SDS011;41383;51.418;7.286;2023-04-12T14:58:54;6.88;;;3.30;;
55537;SDS011;41383;51.418;7.286;2023-04-12T15:01:20;12.73;;;4.93;;
55537;SDS011;41383;51.418;7.286;2023-04-12T15:03:47;9.63;;;5.10;;
55537;SDS011;41383;51.418;7.286;2023-04-12T15:06:12;7.60;;;3.45;;
55537;SDS011;41383;51.418;7.286;2023-04-12T15:08:38;11.77;;;4.43;;
55537;SDS011;41383;51.418;7.286;2023-04-12T15:11:07;9.48;;;3.08;;
55537;SDS011;41383;51.418;7.286;2023-04-12T15:13:34;4.88;;;2.40;;